Latest Weather Observations for Ballarat

IDV60801

Issued at 11:32 pm EST Monday 26 June 2017 (issued every 30 minutes, with the page automatically refreshed every 10 minutes)

About weather observations | Map of weather stations | Latest weather observations for VIC | Other Formats
Station Details ID: 089002 Name: BALLARAT AERODROME Lat: -37.51 Lon: 143.79 Height: 435.2 m
Data from the previous 72 hours. | See also: Recent months at Ballarat
Date/Time
EST
Temp
°C
App
Temp
°C
Dew
Point
°C
Rel
Hum
%
Delta-T
°C
Wind Press
QNH
hPa
Press
MSL
hPa
Rain since
9am
mm
Dir  Spd
km/h
Gust
km/h
Spd
kts
Gust
kts
26/11:30pm 6.1 4.1 6.1 100 0.0 ENE 6 7 3 4 1025.3 1026.1 0.0
26/11:00pm 6.2 4.2 6.2 100 0.0 E 6 7 3 4 1025.6 1026.3 0.0
26/10:30pm 6.1 4.4 6.1 100 0.0 SE 4 9 2 5 1025.3 1026.1 0.0
26/10:00pm 5.8 4.8 5.8 100 0.0 CALM 0 0 0 0 1025.7 1026.4 0.0
26/09:30pm 5.7 4.7 5.7 100 0.0 CALM 0 0 0 0 1025.7 1026.4 0.0
26/09:00pm 5.8 4.8 5.8 100 0.0 CALM 0 0 0 0 1025.7 1026.4 0.0
26/08:43pm 5.2 3.7 5.2 100 0.0 SSE 2 6 1 3 1025.6 1026.3 0.0
26/08:30pm 5.3 3.9 5.3 100 0.0 SSE 2 6 1 3 1025.6 1026.3 0.0
26/08:19pm 5.0 3.9 5.0 100 0.0 CALM 0 0 0 0 1025.7 1026.4 0.0
26/08:00pm 5.5 4.5 5.5 100 0.0 CALM 0 0 0 0 1025.5 1026.2 0.0
26/07:30pm 6.4 5.6 6.4 100 0.0 CALM 0 0 0 0 1025.3 1026.1 0.0
26/07:00pm 6.6 5.8 6.6 100 0.0 CALM 0 0 0 0 1025.2 1026.0 0.0
26/06:30pm 6.8 5.7 6.8 100 0.0 SSW 2 6 1 3 1025.0 1025.8 0.0
26/06:00pm 7.0 5.0 7.0 100 0.0 WSW 7 7 4 4 1024.9 1025.7 0.0
26/05:30pm 6.9 6.2 6.8 99 0.0 CALM 0 0 0 0 1024.6 1025.4 0.0
26/05:00pm 7.3 5.5 7.2 99 0.0 W 6 7 3 4 1024.2 1025.0 0.0
26/04:30pm 8.1 6.3 8.0 99 0.0 W 7 9 4 5 1024.2 1025.0 0.0
26/04:00pm 8.3 6.1 8.0 98 0.1 SSW 9 11 5 6 1024.0 1024.7 0.0
26/03:30pm 8.7 6.9 7.9 95 0.4 W 7 11 4 6 1023.8 1024.5 0.0
26/03:00pm 8.8 8.2 7.6 92 0.6 CALM 0 9 0 5 1023.6 1024.3 0.0
26/02:30pm 9.0 7.1 6.8 86 1.1 SW 6 7 3 4 1023.5 1024.2 0.0
26/02:00pm 8.7 7.9 8.3 97 0.2 WSW 2 7 1 4 1023.6 1024.3 0.0
26/01:30pm 8.1 5.9 7.8 98 0.1 W 9 13 5 7 1023.7 1024.4 0.0
26/01:00pm 8.0 5.8 7.7 98 0.1 WNW 9 11 5 6 1023.8 1024.5 0.0
26/12:30pm 8.0 5.8 7.7 98 0.1 W 9 11 5 6 1023.9 1024.6 0.0
26/12:00pm 8.2 6.4 7.9 98 0.1 SSW 7 11 4 6 1024.2 1025.0 0.0
26/11:44am 7.8 5.9 7.7 99 0.0 SW 7 9 4 5 1024.3 1025.1 0.0
26/11:30am 7.5 5.2 7.4 99 0.0 SW 9 13 5 7 1024.4 1025.2 0.0
26/11:00am 7.7 5.8 7.6 99 0.0 S 7 9 4 5 1024.4 1025.2 0.0
26/10:30am 6.7 3.5 6.7 100 0.0 SSW 13 19 7 10 1024.3 1025.1 0.0
26/10:00am 6.6 3.3 6.6 100 0.0 SW 13 17 7 9 1023.8 1024.5 0.0
26/09:30am 6.1 3.5 6.1 100 0.0 SSW 9 17 5 9 1023.3 1024.0 0.0
26/09:00am 6.0 3.4 6.0 100 0.0 SW 9 15 5 8 1023.0 1023.7 3.0
26/08:42am 5.9 3.6 5.9 100 0.0 SW 7 9 4 5 1022.6 1023.4 3.0
26/08:30am 5.6 2.9 5.6 100 0.0 SW 9 11 5 6 1022.5 1023.3 3.0
26/08:14am 5.6 3.3 5.6 100 0.0 WSW 7 9 4 5 1022.3 1023.1 3.0
26/08:00am 5.6 3.3 5.6 100 0.0 SW 7 11 4 6 1022.1 1022.8 3.0
26/07:50am 5.6 2.9 5.6 100 0.0 SW 9 11 5 6 1022.0 1022.7 3.0
26/07:30am 5.6 2.9 5.6 100 0.0 WSW 9 11 5 6 1021.9 1022.6 3.0
26/07:00am 5.6 2.9 5.6 100 0.0 SW 9 13 5 7 1021.4 1022.1 3.0
26/06:33am 5.8 3.1 5.8 100 0.0 W 9 11 5 6 1021.2 1021.9 3.0
26/06:30am 5.8 3.5 5.8 100 0.0 WSW 7 11 4 6 1021.2 1021.9 3.0
26/06:00am 6.1 3.5 6.1 100 0.0 SW 9 13 5 7 1020.9 1021.6 3.0
26/05:30am 6.2 3.2 6.2 100 0.0 W 11 15 6 8 1020.7 1021.4 3.0
26/05:00am 6.3 3.4 6.3 100 0.0 SW 11 17 6 9 1020.4 1021.2 3.0
26/04:59am 6.3 3.4 6.3 100 0.0 SW 11 17 6 9 1020.4 1021.2 3.0
26/04:30am 6.3 2.2 6.3 100 0.0 WSW 17 22 9 12 1020.1 1020.8 3.0
26/04:13am 6.7 4.2 6.7 100 0.0 W 9 13 5 7 1020.0 1020.7 3.0
26/04:09am 6.7 4.2 6.7 100 0.0 W 9 11 5 6 1020.0 1020.7 3.0
26/04:00am 6.7 4.6 6.7 100 0.0 W 7 9 4 5 1020.0 1020.7 3.0
26/03:30am 6.7 4.2 6.7 100 0.0 W 9 13 5 7 1019.9 1020.6 3.0
26/03:26am 6.8 4.4 6.8 100 0.0 W 9 13 5 7 1020.0 1020.7 3.0
26/03:00am 6.8 4.4 6.8 100 0.0 WSW 9 13 5 7 1019.9 1020.6 3.0
26/02:30am 6.8 4.4 6.8 100 0.0 W 9 13 5 7 1019.6 1020.3 3.0
26/02:00am 7.0 4.2 7.0 100 0.0 WSW 11 17 6 9 1019.4 1020.1 3.0
26/01:30am 7.0 3.8 7.0 100 0.0 WSW 13 17 7 9 1019.2 1019.9 3.0
26/01:00am 7.1 4.3 7.1 100 0.0 W 11 17 6 9 1019.0 1019.7 3.0
26/12:47am 7.2 4.8 7.2 100 0.0 W 9 11 5 6 1019.0 1019.7 3.0
26/12:30am 7.2 4.8 7.2 100 0.0 W 9 11 5 6 1019.0 1019.7 3.0
26/12:29am 7.2 5.2 7.2 100 0.0 W 7 11 4 6 1019.0 1019.7 3.0
26/12:00am 7.3 5.3 7.3 100 0.0 W 7 11 4 6 1019.0 1019.7 3.0
 
Date/Time
EST
Temp
°C
App
Temp
°C
Dew
Point
°C
Rel
Hum
%
Delta-T
°C
Wind Press
QNH
hPa
Press
MSL
hPa
Rain since
9am
mm
Dir  Spd
km/h
Gust
km/h
Spd
kts
Gust
kts
25/11:30pm 7.2 4.5 7.2 100 0.0 WSW 11 17 6 9 1019.0 1019.7 3.0
25/11:00pm 7.3 4.2 7.3 100 0.0 W 13 17 7 9 1018.8 1019.5 3.0
25/10:44pm 7.3 3.8 7.3 100 0.0 W 15 20 8 11 1018.8 1019.5 3.0
25/10:30pm 7.4 4.7 7.4 100 0.0 W 11 17 6 9 1018.8 1019.5 3.0
25/10:12pm 7.3 4.2 7.3 100 0.0 WNW 13 19 7 10 1018.7 1019.4 2.2
25/10:00pm 7.3 4.2 7.3 100 0.0 WNW 13 17 7 9 1018.7 1019.4 1.8
25/09:55pm 7.2 4.5 7.2 100 0.0 NW 11 17 6 9 1018.7 1019.4 1.8
25/09:30pm 7.2 4.8 7.2 100 0.0 WNW 9 13 5 7 1018.6 1019.3 1.4
25/09:11pm 7.2 5.2 7.2 100 0.0 NW 7 9 4 5 1018.4 1019.1 1.0
25/09:08pm 7.2 5.2 7.2 100 0.0 NW 7 9 4 5 1018.4 1019.1 1.0
25/09:00pm 7.2 5.4 7.2 100 0.0 WNW 6 7 3 4 1018.3 1018.9 1.0
25/08:30pm 7.2 4.5 7.2 100 0.0 WNW 11 15 6 8 1018.2 1018.8 0.8
25/08:23pm 7.2 5.2 7.2 100 0.0 NW 7 11 4 6 1018.2 1018.8 0.6
25/08:14pm 7.2 5.2 7.2 100 0.0 WNW 7 9 4 5 1018.0 1018.7 0.6
25/08:07pm 7.2 4.8 7.2 100 0.0 W 9 11 5 6 1018.0 1018.7 0.6
25/08:00pm 7.2 4.8 7.1 99 0.0 WNW 9 13 5 7 1017.8 1018.5 0.6
25/07:56pm 7.2 4.8 7.1 99 0.0 WNW 9 11 5 6 1017.8 1018.5 0.6
25/07:30pm 7.3 4.9 7.2 99 0.0 WNW 9 11 5 6 1017.4 1018.1 0.2
25/07:00pm 7.6 4.5 7.3 98 0.1 WNW 13 19 7 10 1017.1 1017.8 0.2
25/06:30pm 7.2 3.6 6.9 98 0.1 NW 15 17 8 9 1016.7 1017.4 0.0
25/06:00pm 8.0 5.6 7.2 95 0.4 W 9 11 5 6 1016.4 1017.1 0.0
25/05:30pm 8.7 4.7 6.5 86 1.0 WNW 17 20 9 11 1016.1 1016.7 0.0
25/05:00pm 8.9 5.2 6.5 85 1.1 WNW 15 19 8 10 1015.9 1016.5 0.0
25/04:30pm 9.3 4.6 6.0 80 1.6 WNW 20 28 11 15 1015.7 1016.3 0.0
25/04:00pm 9.6 4.0 5.6 76 1.9 NW 24 30 13 16 1015.3 1016.0 0.0
25/03:30pm 9.8 3.9 6.0 77 1.8 WNW 26 35 14 19 1015.1 1015.8 0.0
25/03:00pm 9.9 4.0 7.3 84 1.3 WNW 28 35 15 19 1015.1 1015.8 0.0
25/02:30pm 9.3 4.1 7.4 88 0.9 WNW 24 32 13 17 1015.1 1015.8 0.0
25/02:00pm 9.5 5.3 8.1 91 0.7 WNW 20 28 11 15 1015.4 1016.1 0.0
25/01:30pm 9.0 4.0 8.2 95 0.4 WNW 24 32 13 17 1015.7 1016.3 0.0
25/01:00pm 8.4 3.0 8.1 98 0.1 NNW 26 32 14 17 1015.8 1016.4 0.0
25/12:34pm 8.2 2.4 7.9 98 0.1 NNW 28 35 15 19 1015.8 1016.4 0.0
25/12:30pm 8.2 2.4 7.9 98 0.1 NNW 28 35 15 19 1015.8 1016.4 0.0
25/12:00pm 8.1 3.1 8.0 99 0.0 NNW 24 32 13 17 1016.3 1016.9 0.0
25/11:30am 7.6 2.1 7.5 99 0.0 NNW 26 33 14 18 1016.7 1017.4 0.0
25/11:00am 6.8 1.9 6.8 100 0.0 N 22 30 12 16 1016.9 1017.6 0.0
25/10:45am 6.7 1.8 6.7 100 0.0 N 22 28 12 15 1017.0 1017.7 0.0
25/10:43am 6.6 1.3 6.6 100 0.0 N 24 28 13 15 1017.0 1017.7 0.0
25/10:30am 6.5 1.5 6.5 100 0.0 N 22 26 12 14 1017.0 1017.7 0.0
25/10:25am 6.3 1.7 6.3 100 0.0 N 20 26 11 14 1017.1 1017.8 0.0
25/10:20am 6.2 1.1 6.2 100 0.0 N 22 28 12 15 1017.1 1017.8 0.0
25/10:00am 5.9 0.4 5.9 100 0.0 N 24 32 13 17 1017.0 1017.7 0.0
25/09:34am 5.4 0.2 5.4 100 0.0 N 22 30 12 16 1016.8 1017.5 0.0
25/09:30am 5.2 -0.4 5.2 100 0.0 N 24 30 13 16 1016.8 1017.5 0.0
25/09:00am 5.1 0.4 5.1 100 0.0 N 19 22 10 12 1016.8 1017.5 0.2
25/08:30am 4.8 -0.2 4.8 100 0.0 N 20 26 11 14 1016.7 1017.4 0.2
25/08:00am 4.1 -0.8 4.1 100 0.0 N 19 24 10 13 1016.6 1017.3 0.2
25/07:30am 3.6 -1.4 3.6 100 0.0 N 19 22 10 12 1016.5 1017.2 0.2
25/07:00am 4.0 -0.9 4.0 100 0.0 N 19 22 10 12 1016.3 1016.9 0.2
25/06:30am 4.1 -1.0 4.0 99 0.0 N 20 26 11 14 1016.2 1016.8 0.2
25/06:00am 4.5 -0.5 4.4 99 0.0 N 20 24 11 13 1015.8 1016.4 0.2
25/05:30am 4.0 -0.5 4.0 100 0.0 N 17 19 9 10 1015.9 1016.5 0.2
25/05:00am 3.1 -0.9 3.0 99 0.0 NNW 13 17 7 9 1016.0 1016.6 0.2
25/04:30am 3.6 -0.3 3.5 99 0.0 N 13 15 7 8 1016.1 1016.7 0.2
25/04:00am 3.4 -0.5 3.3 99 0.0 N 13 15 7 8 1016.2 1016.8 0.2
25/03:30am 3.9 0.8 3.8 99 0.0 NNW 9 11 5 6 1016.4 1017.1 0.2
25/03:00am 3.8 1.1 3.7 99 0.0 NNW 7 9 4 5 1016.5 1017.2 0.2
25/02:30am 3.5 0.3 3.2 98 0.1 NW 9 11 5 6 1016.5 1017.2 0.2
25/02:00am 4.4 1.0 4.1 98 0.1 NNW 11 15 6 8 1016.6 1017.3 0.0
25/01:30am 3.8 0.3 3.5 98 0.1 NNW 11 15 6 8 1016.5 1017.2 0.0
25/01:00am 5.2 1.6 4.8 97 0.2 NW 13 17 7 9 1016.7 1017.4 0.0
25/12:30am 4.8 1.1 4.5 98 0.1 NNW 13 17 7 9 1016.8 1017.5 0.0
25/12:00am 4.9 1.9 4.3 96 0.3 NNW 9 13 5 7 1016.9 1017.6 0.0
 
Date/Time
EST
Temp
°C
App
Temp
°C
Dew
Point
°C
Rel
Hum
%
Delta-T
°C
Wind Press
QNH
hPa
Press
MSL
hPa
Rain since
9am
mm
Dir  Spd
km/h
Gust
km/h
Spd
kts
Gust
kts
24/11:30pm 5.2 1.5 4.3 94 0.4 NNW 13 15 7 8 1016.9 1017.6 0.0
24/11:00pm 5.0 1.6 4.1 94 0.4 WNW 11 15 6 8 1017.1 1017.8 0.0
24/10:30pm 5.3 1.6 4.6 95 0.3 NNW 13 20 7 11 1017.3 1018.0 0.0
24/10:00pm 5.0 1.3 4.6 97 0.2 N 13 17 7 9 1017.4 1018.1 0.0
24/09:30pm 5.1 1.8 4.5 96 0.3 N 11 13 6 7 1017.4 1018.1 0.0
24/09:00pm 4.9 1.6 4.6 98 0.1 N 11 13 6 7 1017.4 1018.1 0.0
24/08:30pm 4.7 1.8 4.4 98 0.1 N 9 11 5 6 1017.5 1018.2 0.0
24/08:00pm 4.7 1.8 4.4 98 0.1 N 9 11 5 6 1017.7 1018.4 0.0
24/07:30pm 4.6 1.6 4.3 98 0.1 NNW 9 11 5 6 1017.7 1018.4 0.0
24/07:00pm 4.9 3.5 3.7 92 0.5 CALM 0 0 0 0 1017.6 1018.3 0.0
24/06:30pm 5.4 2.2 3.3 86 0.9 WNW 9 13 5 7 1017.5 1018.2 0.0
24/06:00pm 5.8 2.1 2.6 80 1.3 WNW 11 17 6 9 1017.5 1018.2 0.0
24/05:30pm 6.3 0.9 1.4 71 2.0 WNW 19 26 10 14 1017.5 1018.2 0.0
24/05:00pm 6.8 2.6 1.5 69 2.2 W 13 20 7 11 1017.4 1018.1 0.0
24/04:30pm 7.0 2.8 1.5 68 2.3 W 13 19 7 10 1017.3 1018.0 0.0
24/04:00pm 7.1 2.4 3.0 75 1.8 W 17 24 9 13 1017.1 1017.8 0.0
24/03:30pm 7.4 2.6 2.7 72 2.0 W 17 20 9 11 1017.1 1017.8 0.0
24/03:00pm 7.4 2.6 2.5 71 2.1 W 17 24 9 13 1017.1 1017.8 0.0
24/02:30pm 7.6 3.1 2.3 69 2.3 W 15 19 8 10 1017.0 1017.7 0.0
24/02:00pm 7.6 3.7 3.6 76 1.8 WSW 13 17 7 9 1017.2 1017.9 0.0
24/01:30pm 7.6 3.3 3.5 75 1.8 W 15 19 8 10 1017.4 1018.1 0.0
24/01:00pm 7.3 3.0 3.4 76 1.7 W 15 22 8 12 1017.8 1018.5 0.0
24/12:30pm 8.2 4.0 4.0 75 1.9 W 15 24 8 13 1017.9 1018.6 0.0
24/12:00pm 7.1 3.1 4.9 86 1.0 W 15 22 8 12 1018.4 1019.1 0.0
24/11:30am 6.9 3.2 4.7 86 1.0 W 13 19 7 10 1018.6 1019.3 0.0
24/11:21am 7.5 4.4 5.5 87 0.9 WSW 11 19 6 10 1018.6 1019.3 0.0
24/11:10am 7.2 3.9 6.5 95 0.3 W 13 17 7 9 1018.7 1019.4 0.0
24/11:00am 6.7 2.9 5.8 94 0.4 WSW 15 19 8 10 1018.8 1019.5 0.0
24/10:57am 6.9 3.3 6.6 98 0.1 WSW 15 19 8 10 1018.8 1019.5 0.0
24/10:46am 6.5 3.2 6.2 98 0.1 W 13 20 7 11 1018.8 1019.5 0.0
24/10:40am 6.3 3.3 6.0 98 0.1 W 11 15 6 8 1018.8 1019.5 0.0
24/10:30am 6.0 3.0 5.9 99 0.0 WSW 11 17 6 9 1018.9 1019.6 0.0
24/10:19am 6.0 2.6 5.9 99 0.0 W 13 17 7 9 1018.8 1019.5 0.0
24/10:00am 5.3 2.9 5.3 100 0.0 WSW 7 11 4 6 1018.8 1019.5 0.0
24/09:30am 4.9 2.0 4.9 100 0.0 WSW 9 11 5 6 1018.8 1019.5 0.0
24/09:14am 4.5 1.2 4.5 100 0.0 WSW 11 15 6 8 1018.8 1019.5 0.0
24/09:00am 4.9 2.6 4.9 100 0.0 WSW 6 9 3 5 1018.6 1019.3 1.4
24/08:30am 4.4 1.8 4.4 100 0.0 SW 7 11 4 6 1018.3 1018.9 1.4
24/08:27am 4.3 1.3 4.3 100 0.0 SW 9 11 5 6 1018.3 1018.9 1.4
24/08:00am 4.3 1.3 4.3 100 0.0 WSW 9 11 5 6 1017.9 1018.6 1.4
24/07:58am 4.4 1.8 4.4 100 0.0 WSW 7 11 4 6 1017.9 1018.6 1.4
24/07:46am 4.5 2.0 4.5 100 0.0 WSW 7 9 4 5 1017.8 1018.5 1.4
24/07:40am 4.4 1.8 4.4 100 0.0 WSW 7 9 4 5 1017.8 1018.5 1.4
24/07:30am 4.3 1.7 4.3 100 0.0 WSW 7 9 4 5 1017.6 1018.3 1.4
24/07:28am 4.3 1.7 4.3 100 0.0 WSW 7 9 4 5 1017.5 1018.2 1.4
24/07:00am 4.7 2.2 4.7 100 0.0 SW 7 9 4 5 1017.1 1017.8 1.4
24/06:30am 5.3 3.1 5.3 100 0.0 SSW 6 9 3 5 1016.8 1017.5 1.4
24/06:00am 5.4 3.0 5.4 100 0.0 SW 7 13 4 7 1016.8 1017.5 1.4
24/05:47am 5.6 3.5 5.6 100 0.0 SW 6 9 3 5 1016.6 1017.3 1.4
24/05:30am 5.5 3.2 5.5 100 0.0 SW 7 11 4 6 1016.6 1017.3 1.4
24/05:00am 5.4 3.2 5.4 100 0.0 SW 6 7 3 4 1016.3 1016.9 1.4
24/04:30am 5.4 3.0 5.4 100 0.0 SSW 7 11 4 6 1015.9 1016.5 1.4
24/04:00am 5.7 2.6 5.7 100 0.0 S 11 15 6 8 1016.0 1016.6 1.4
24/03:34am 5.9 2.5 5.9 100 0.0 SSW 13 20 7 11 1016.0 1016.6 1.4
24/03:30am 6.0 3.0 6.0 100 0.0 SSW 11 17 6 9 1016.0 1016.6 1.4
24/03:27am 6.0 2.6 6.0 100 0.0 SSW 13 19 7 10 1016.0 1016.6 1.4
24/03:14am 6.0 3.0 6.0 100 0.0 SSW 11 15 6 8 1016.0 1016.6 1.2
24/03:06am 6.0 3.0 6.0 100 0.0 SSW 11 15 6 8 1016.0 1016.6 1.2
24/03:00am 6.0 2.6 6.0 100 0.0 SSW 13 19 7 10 1016.0 1016.6 1.2
24/02:51am 6.0 1.9 6.0 100 0.0 SSW 17 24 9 13 1015.9 1016.5 1.2
24/02:47am 6.0 1.9 6.0 100 0.0 SSW 17 24 9 13 1015.9 1016.5 1.2
24/02:34am 6.1 1.6 6.1 100 0.0 SSW 19 30 10 16 1015.8 1016.4 1.0
24/02:30am 6.4 2.7 6.4 100 0.0 SSW 15 28 8 15 1015.8 1016.4 1.0
24/02:00am 6.7 3.1 6.7 100 0.0 SSW 15 20 8 11 1015.7 1016.3 1.0
24/01:30am 7.2 3.3 7.2 100 0.0 SSW 17 20 9 11 1015.4 1016.1 1.0
24/01:11am 7.4 3.2 7.4 100 0.0 SW 19 26 10 14 1015.3 1016.0 1.0
24/01:00am 7.7 4.3 7.7 100 0.0 WSW 15 26 8 14 1015.2 1015.9 1.0
24/12:57am 7.9 4.9 7.9 100 0.0 WSW 13 22 7 12 1015.2 1015.9 1.0
24/12:30am 8.0 5.1 8.0 100 0.0 W 13 19 7 10 1015.1 1015.8 0.2
24/12:00am 7.7 5.5 7.7 100 0.0 WSW 9 13 5 7 1015.3 1016.0 0.2
 
Date/Time
EST
Temp
°C
App
Temp
°C
Dew
Point
°C
Rel
Hum
%
Delta-T
°C
Wind Press
QNH
hPa
Press
MSL
hPa
Rain since
9am
mm
Dir  Spd
km/h
Gust
km/h
Spd
kts
Gust
kts
23/11:42pm 7.7 5.1 7.7 100 0.0 WSW 11 15 6 8 1015.3 1016.0 0.2

Other Formats:

Comma delimited format used in spreadsheet applications
http://www.bom.gov.au/fwo/IDV60801/IDV60801.94852.axf

JavaScript Object Notation format (JSON) in row-major order
http://www.bom.gov.au/fwo/IDV60801/IDV60801.94852.json